CheckWX is a tool to help pilots better visualize weather data.  It is not intended as a substitute for an official pre-flight weather briefing.

21:09:43 UTC

EGPD TAF
Aberdeen Dyce Airport Airport
Aberdeen, United Kingdom
TAF EGPD 092301Z 1000/1024 30006KT 9999 FEW010 SCT016 PROB30 TEMPO 1000/1006 6000 SHRA BKN009 TEMPO 1009/1019 6000 SHRA PROB30 TEMPO 1011/1018 4000 +SHRA

Jul-10@
00:00 UTC

Jul-10 @ 00:00 UTC

Jul-11@
00:00 UTC

Jul-11 @ 00:00 UTC

TAF EGPD 092301Z 1000/1024 30006KT 9999 FEW010 SCT016
Wind
  • 300° at 6 KTS
Cloud Levels
  • Few at 1,000' AGL
  • Scattered at 1,600' AGL

Jul-10@
00:00 UTC

Jul-10 @ 00:00 UTC

Jul-10@
06:00 UTC

Jul-10 @ 06:00 UTC

PROB30 TEMPO 1000/1006 6000 SHRA BKN009

Expired

Conditions
Showers, Rain
Cloud Levels
  • Broken at 900' AGL

Jul-10@
09:00 UTC

Jul-10 @ 09:00 UTC

Jul-10@
19:00 UTC

Jul-10 @ 19:00 UTC

TEMPO 1009/1019 6000 SHRA

Expired

Conditions
Showers, Rain
Cloud Levels

Jul-10@
11:00 UTC

Jul-10 @ 11:00 UTC

Jul-10@
18:00 UTC

Jul-10 @ 18:00 UTC

PROB30 TEMPO 1011/1018 4000 +SHRA

Expired

Conditions
Heavy Showers, Rain
Cloud Levels